createdAt,value
2023-04-07T00:01:30.437Z,3.48
2023-04-07T00:03:58.930Z,3.45
2023-04-07T00:06:27.539Z,3.48
2023-04-07T00:08:55.445Z,3.45
2023-04-07T00:11:23.324Z,3.43
2023-04-07T00:13:52.946Z,3.42
2023-04-07T00:16:21.718Z,3.48
2023-04-07T00:18:49.721Z,3.48
2023-04-07T00:21:17.754Z,3.48
2023-04-07T00:23:46.898Z,3.50
2023-04-07T00:26:14.940Z,3.47
2023-04-07T00:28:45.026Z,3.47
2023-04-07T00:31:14.697Z,3.50
2023-04-07T00:33:42.598Z,3.46
2023-04-07T00:36:10.933Z,3.48
2023-04-07T00:38:38.996Z,3.51
2023-04-07T00:41:07.018Z,3.49
2023-04-07T00:43:35.248Z,3.53
2023-04-07T00:46:03.220Z,3.51
2023-04-07T00:48:32.576Z,3.51
2023-04-07T00:51:00.663Z,3.53
2023-04-07T00:53:28.749Z,3.54
2023-04-07T00:55:56.914Z,3.53
2023-04-07T00:58:24.757Z,3.55
2023-04-07T01:01:01.154Z,3.52
2023-04-07T01:03:36.664Z,3.48
2023-04-07T01:06:07.884Z,3.50
2023-04-07T01:08:55.035Z,3.50
2023-04-07T01:11:29.446Z,3.49
2023-04-07T01:14:01.250Z,3.51
2023-04-07T01:16:41.612Z,3.54
2023-04-07T01:19:17.372Z,3.49
2023-04-07T01:21:56.228Z,3.52
2023-04-07T01:24:54.100Z,3.55
2023-04-07T01:27:33.794Z,3.56
2023-04-07T01:30:05.226Z,3.57
2023-04-07T01:32:36.696Z,3.57
2023-04-07T01:35:06.246Z,3.57
2023-04-07T01:37:35.010Z,3.55
2023-04-07T01:40:03.777Z,3.58
2023-04-07T01:42:32.408Z,3.60
2023-04-07T01:45:02.301Z,3.60
2023-04-07T01:47:32.960Z,3.60
2023-04-07T01:50:04.662Z,3.59
2023-04-07T01:52:33.391Z,3.59
2023-04-07T01:55:01.604Z,3.57
2023-04-07T01:57:30.929Z,3.58
2023-04-07T02:00:03.948Z,3.55
2023-04-07T02:02:47.966Z,3.55
2023-04-07T02:05:20.366Z,3.56
2023-04-07T02:07:54.740Z,3.55
2023-04-07T02:10:25.355Z,3.56
2023-04-07T02:12:56.701Z,3.55
2023-04-07T02:15:26.080Z,3.56
2023-04-07T02:17:57.923Z,3.55
2023-04-07T02:20:26.563Z,3.51
2023-04-07T02:22:55.849Z,3.51
2023-04-07T02:25:26.513Z,3.49
2023-04-07T02:27:56.320Z,3.44
2023-04-07T02:30:25.394Z,3.43
2023-04-07T02:32:53.364Z,3.38
2023-04-07T02:35:23.313Z,3.33
2023-04-07T02:37:51.534Z,3.27
2023-04-07T02:40:19.693Z,3.22
2023-04-07T02:42:47.868Z,3.20
2023-04-07T02:45:16.141Z,3.16
2023-04-07T02:47:44.132Z,3.07
2023-04-07T02:50:13.170Z,3.07
2023-04-07T02:52:42.521Z,2.99
2023-04-07T02:55:14.363Z,3.01
2023-04-07T02:57:42.641Z,2.97
2023-04-07T03:00:20.088Z,2.92
2023-04-07T03:03:07.180Z,2.94
2023-04-07T03:05:38.713Z,2.90
2023-04-07T03:08:10.141Z,2.87
2023-04-07T03:10:40.429Z,2.87
2023-04-07T03:13:09.630Z,2.91
2023-04-07T03:15:38.710Z,2.91
2023-04-07T03:18:07.930Z,2.92
2023-04-07T03:20:36.420Z,2.91
2023-04-07T03:23:11.506Z,2.90
2023-04-07T03:25:39.607Z,2.93
2023-04-07T03:28:07.789Z,2.95
2023-04-07T03:30:39.228Z,2.95
2023-04-07T03:33:08.225Z,2.97
2023-04-07T03:35:36.653Z,3.00
2023-04-07T03:38:04.564Z,3.05
2023-04-07T03:40:35.732Z,3.05
2023-04-07T03:43:03.898Z,3.07
2023-04-07T03:45:31.902Z,3.06
2023-04-07T03:48:00.074Z,3.08
2023-04-07T03:50:28.193Z,3.07
2023-04-07T03:53:09.306Z,3.04
2023-04-07T03:55:39.091Z,3.08
2023-04-07T03:58:18.776Z,3.05
2023-04-07T04:00:49.164Z,3.07
2023-04-07T04:03:19.142Z,3.09
2023-04-07T04:06:01.927Z,3.08
2023-04-07T04:08:32.481Z,3.12
2023-04-07T04:11:01.712Z,3.12
2023-04-07T04:13:36.388Z,3.12
2023-04-07T04:16:07.027Z,3.12
2023-04-07T04:18:36.917Z,3.15
2023-04-07T04:21:06.283Z,3.12
2023-04-07T04:23:35.078Z,3.17
2023-04-07T04:26:05.855Z,3.10
2023-04-07T04:28:34.737Z,3.18
2023-04-07T04:31:04.881Z,3.20
2023-04-07T04:33:39.834Z,3.22
2023-04-07T04:36:08.390Z,3.21
2023-04-07T04:38:36.837Z,3.22
2023-04-07T04:41:18.559Z,3.24
2023-04-07T04:43:47.862Z,3.26
2023-04-07T04:46:21.544Z,3.27
2023-04-07T04:48:51.508Z,3.17
2023-04-07T04:51:21.309Z,3.26
2023-04-07T04:53:55.047Z,3.27
2023-04-07T04:56:26.749Z,3.31
2023-04-07T04:58:55.504Z,3.29
2023-04-07T05:01:33.900Z,3.30
2023-04-07T05:04:10.412Z,3.27
2023-04-07T05:06:42.818Z,3.25
2023-04-07T05:09:13.352Z,3.28
2023-04-07T05:11:46.687Z,3.28
2023-04-07T05:14:14.806Z,3.28
2023-04-07T05:16:48.165Z,3.29
2023-04-07T05:19:22.755Z,3.33
2023-04-07T05:21:53.591Z,3.35
2023-04-07T05:24:23.564Z,3.37
2023-04-07T05:26:57.903Z,3.40
2023-04-07T05:29:27.133Z,3.43
2023-04-07T05:31:56.411Z,3.46
2023-04-07T05:34:25.699Z,3.48
2023-04-07T05:36:56.093Z,3.46
2023-04-07T05:39:24.073Z,3.60
2023-04-07T05:41:56.603Z,3.67
2023-04-07T05:44:28.462Z,3.67
2023-04-07T05:46:57.248Z,3.67
2023-04-07T05:49:26.790Z,3.72
2023-04-07T05:52:03.822Z,3.70
2023-04-07T05:54:32.055Z,3.71
2023-04-07T05:57:02.599Z,3.68
2023-04-07T05:59:33.603Z,3.71
2023-04-07T06:02:02.294Z,3.68
2023-04-07T06:04:31.118Z,3.68
2023-04-07T06:07:00.042Z,3.66
2023-04-07T06:09:27.975Z,3.64
2023-04-07T06:11:56.746Z,3.69
2023-04-07T06:14:24.914Z,3.63
2023-04-07T06:16:54.196Z,3.68
2023-04-07T06:19:22.134Z,3.68
2023-04-07T06:21:50.066Z,3.66
2023-04-07T06:24:17.940Z,3.64
2023-04-07T06:26:46.738Z,3.63
2023-04-07T06:29:14.852Z,3.64
2023-04-07T06:31:43.387Z,3.59
2023-04-07T06:34:12.593Z,3.56
2023-04-07T06:36:40.660Z,3.48
2023-04-07T06:39:08.852Z,3.47
2023-04-07T06:41:36.742Z,3.48
2023-04-07T06:44:04.634Z,3.47
2023-04-07T06:46:32.499Z,3.48
2023-04-07T06:49:00.494Z,3.50
2023-04-07T06:51:29.751Z,3.59
2023-04-07T06:53:57.655Z,3.61
2023-04-07T06:56:26.134Z,3.70
2023-04-07T06:58:54.325Z,3.74
2023-04-07T07:01:22.219Z,3.73
2023-04-07T07:03:50.631Z,3.71
2023-04-07T07:06:18.754Z,3.77
2023-04-07T07:08:47.992Z,3.90
2023-04-07T07:11:16.086Z,4.06
2023-04-07T07:13:45.015Z,4.16
2023-04-07T07:16:13.716Z,4.30
2023-04-07T07:18:41.713Z,4.33
2023-04-07T07:21:09.746Z,4.31
2023-04-07T07:23:37.550Z,4.28
2023-04-07T07:26:06.887Z,4.24
2023-04-07T07:28:34.807Z,4.29
2023-04-07T07:31:10.101Z,4.36
2023-04-07T07:33:40.529Z,4.36
2023-04-07T07:36:09.132Z,4.35
2023-04-07T07:38:37.755Z,4.34
2023-04-07T07:41:07.567Z,4.38
2023-04-07T07:43:35.444Z,4.39
2023-04-07T07:46:03.259Z,4.45
2023-04-07T07:48:31.351Z,4.60
2023-04-07T07:50:59.390Z,4.70
2023-04-07T07:53:27.380Z,4.78
2023-04-07T07:55:55.990Z,4.85
2023-04-07T07:58:25.566Z,4.88
2023-04-07T08:00:53.469Z,5.07
2023-04-07T08:03:22.931Z,5.17
2023-04-07T08:05:51.281Z,5.21
2023-04-07T08:08:19.270Z,5.22
2023-04-07T08:10:47.271Z,5.43
2023-04-07T08:13:15.292Z,5.57
2023-04-07T08:15:44.506Z,5.61
2023-04-07T08:18:12.470Z,5.58
2023-04-07T08:20:40.801Z,5.53
2023-04-07T08:23:08.728Z,5.54
2023-04-07T08:25:36.629Z,5.63
2023-04-07T08:28:04.434Z,5.67
2023-04-07T08:30:32.325Z,5.71
2023-04-07T08:33:01.670Z,5.81
2023-04-07T08:35:29.581Z,5.97
2023-04-07T08:37:57.425Z,6.14
2023-04-07T08:40:25.448Z,6.17
2023-04-07T08:42:53.287Z,6.27
2023-04-07T08:45:22.380Z,6.48
2023-04-07T08:47:56.721Z,6.48
2023-04-07T08:50:28.101Z,6.55
2023-04-07T08:52:57.739Z,6.56
2023-04-07T08:55:26.116Z,6.55
2023-04-07T08:57:54.364Z,6.52
2023-04-07T09:00:22.568Z,6.37
2023-04-07T09:02:52.403Z,6.34
2023-04-07T09:05:21.470Z,6.41
2023-04-07T09:07:50.777Z,6.53
2023-04-07T09:10:18.797Z,6.60
2023-04-07T09:12:48.350Z,6.75
2023-04-07T09:15:16.400Z,6.85
2023-04-07T09:17:44.670Z,6.77
2023-04-07T09:20:12.736Z,6.69
2023-04-07T09:22:42.355Z,6.60
2023-04-07T09:25:17.476Z,6.66
2023-04-07T09:27:59.630Z,6.76
2023-04-07T09:30:28.634Z,6.93
2023-04-07T09:32:57.129Z,7.01
2023-04-07T09:35:28.097Z,6.95
2023-04-07T09:38:04.100Z,6.98
2023-04-07T09:40:33.843Z,7.15
2023-04-07T09:43:04.900Z,7.30
2023-04-07T09:45:36.822Z,7.23
2023-04-07T09:48:08.882Z,7.26
2023-04-07T09:50:41.193Z,7.40
2023-04-07T09:53:09.446Z,7.51
2023-04-07T09:55:40.776Z,7.66
2023-04-07T09:58:09.726Z,7.93
2023-04-07T10:00:38.006Z,8.09
2023-04-07T10:03:07.165Z,8.08
2023-04-07T10:05:36.657Z,8.16
2023-04-07T10:08:06.898Z,8.13
2023-04-07T10:10:42.136Z,8.02
2023-04-07T10:13:10.165Z,7.88
2023-04-07T10:15:38.343Z,7.74
2023-04-07T10:18:08.867Z,7.64
2023-04-07T10:20:41.552Z,7.63
2023-04-07T10:23:17.740Z,7.64
2023-04-07T10:25:48.819Z,7.65
2023-04-07T10:28:19.347Z,7.56
2023-04-07T10:30:49.746Z,7.64
2023-04-07T10:33:18.480Z,7.79
2023-04-07T10:36:06.225Z,7.98
2023-04-07T10:38:34.232Z,8.08
2023-04-07T10:41:35.018Z,8.37
2023-04-07T10:44:03.737Z,8.54
2023-04-07T10:47:06.392Z,8.69
2023-04-07T10:49:35.074Z,8.98
2023-04-07T10:52:24.230Z,9.14
2023-04-07T10:55:25.201Z,9.29
2023-04-07T10:58:20.487Z,9.51
2023-04-07T11:01:22.929Z,9.59
2023-04-07T11:03:59.647Z,9.71
2023-04-07T11:06:28.030Z,9.99
2023-04-07T11:08:56.448Z,10.19
2023-04-07T11:11:42.402Z,10.35
2023-04-07T11:14:11.771Z,10.47
2023-04-07T11:16:42.650Z,10.57
2023-04-07T11:19:11.243Z,10.69
2023-04-07T11:21:39.224Z,10.74
2023-04-07T11:24:07.938Z,10.68
2023-04-07T11:26:40.324Z,10.52
2023-04-07T11:29:08.504Z,10.40
2023-04-07T11:31:37.915Z,10.30
2023-04-07T11:34:06.519Z,10.21
2023-04-07T11:36:36.565Z,10.12
2023-04-07T11:39:04.748Z,10.04
2023-04-07T11:41:34.549Z,10.05
2023-04-07T11:44:07.027Z,10.06
2023-04-07T11:46:36.752Z,10.08
2023-04-07T11:49:14.207Z,10.20
2023-04-07T11:51:44.072Z,10.47
2023-04-07T11:54:12.119Z,10.68
2023-04-07T11:56:45.805Z,10.64
2023-04-07T11:59:23.043Z,10.53
2023-04-07T12:01:53.465Z,10.39
2023-04-07T12:04:24.787Z,10.32
2023-04-07T12:06:52.842Z,10.37
2023-04-07T12:09:29.525Z,10.36
2023-04-07T12:11:58.347Z,10.31
2023-04-07T12:14:27.575Z,10.25
2023-04-07T12:16:57.792Z,10.27
2023-04-07T12:19:28.050Z,10.34
2023-04-07T12:21:56.060Z,10.44
2023-04-07T12:24:24.364Z,10.53
2023-04-07T12:26:52.369Z,10.66
2023-04-07T12:29:20.821Z,10.93
2023-04-07T12:31:50.767Z,10.96
2023-04-07T12:34:19.731Z,10.88
2023-04-07T12:36:49.258Z,11.02
2023-04-07T12:39:17.943Z,11.05
2023-04-07T12:41:47.665Z,10.94
2023-04-07T12:44:16.668Z,10.74
2023-04-07T12:46:44.580Z,10.63
2023-04-07T12:49:12.508Z,10.63
2023-04-07T12:51:40.503Z,10.52
2023-04-07T12:54:09.777Z,10.53
2023-04-07T12:56:37.675Z,10.56
2023-04-07T12:59:05.581Z,10.54
2023-04-07T13:01:35.517Z,10.52
2023-04-07T13:04:03.873Z,10.48
2023-04-07T13:06:32.226Z,10.46
2023-04-07T13:09:00.357Z,10.36
2023-04-07T13:11:29.543Z,10.14
2023-04-07T13:13:59.271Z,10.05
2023-04-07T13:16:28.755Z,9.92
2023-04-07T13:18:57.179Z,9.82
2023-04-07T13:23:56.021Z,9.74
2023-04-07T13:26:24.055Z,9.77
2023-04-07T13:28:53.719Z,9.79
2023-04-07T13:31:23.673Z,9.82
2023-04-07T13:33:51.713Z,9.82
2023-04-07T13:36:22.536Z,9.92
2023-04-07T13:38:51.281Z,9.97
2023-04-07T13:41:19.173Z,9.97
2023-04-07T13:43:47.305Z,10.07
2023-04-07T13:46:27.940Z,10.14
2023-04-07T13:48:56.678Z,10.19
2023-04-07T13:51:24.610Z,10.19
2023-04-07T13:53:52.642Z,10.14
2023-04-07T13:56:22.131Z,10.14
2023-04-07T13:58:50.446Z,10.15
2023-04-07T14:01:19.699Z,10.12
2023-04-07T14:03:49.625Z,10.14
2023-04-07T14:06:17.848Z,10.11
2023-04-07T14:08:45.663Z,9.99
2023-04-07T14:11:13.593Z,9.88
2023-04-07T14:13:41.512Z,9.78
2023-04-07T14:16:09.977Z,9.68
2023-04-07T14:18:39.394Z,9.59
2023-04-07T14:21:07.470Z,9.52
2023-04-07T14:23:51.141Z,9.48
2023-04-07T14:26:19.204Z,9.46
2023-04-07T14:28:47.564Z,9.48
2023-04-07T14:31:16.348Z,9.45
2023-04-07T14:33:46.329Z,9.44
2023-04-07T14:36:15.894Z,9.37
2023-04-07T14:38:44.338Z,9.32
2023-04-07T14:41:12.578Z,9.27
2023-04-07T14:43:41.062Z,9.21
2023-04-07T14:46:10.023Z,9.20
2023-04-07T14:48:37.898Z,9.21
2023-04-07T14:51:12.740Z,9.21
2023-04-07T14:53:41.990Z,9.17
2023-04-07T14:56:10.153Z,9.17
2023-04-07T14:58:39.086Z,9.08
2023-04-07T15:01:07.415Z,9.08
2023-04-07T15:03:36.875Z,9.07
2023-04-07T15:06:10.002Z,9.02
2023-04-07T15:08:38.233Z,8.97
2023-04-07T15:11:06.686Z,8.88
2023-04-07T15:13:34.744Z,8.80
2023-04-07T15:16:10.496Z,8.73
2023-04-07T15:18:41.020Z,8.64
2023-04-07T15:21:10.938Z,8.59
2023-04-07T15:23:40.424Z,8.51
2023-04-07T15:26:09.184Z,8.46
2023-04-07T15:28:37.039Z,8.33
2023-04-07T15:31:08.480Z,8.26
2023-04-07T15:33:37.027Z,8.19
2023-04-07T15:36:05.555Z,8.16
2023-04-07T15:38:34.909Z,8.08
2023-04-07T15:41:02.850Z,7.97
2023-04-07T15:43:31.247Z,7.96
2023-04-07T15:45:59.043Z,7.98
2023-04-07T15:48:26.901Z,7.96
2023-04-07T15:50:54.996Z,7.93
2023-04-07T15:53:22.981Z,7.91
2023-04-07T15:55:52.257Z,7.89
2023-04-07T15:58:20.192Z,7.84
2023-04-07T16:00:48.217Z,7.73
2023-04-07T16:03:16.254Z,7.65
2023-04-07T16:05:44.241Z,7.61
2023-04-07T16:08:13.594Z,7.55
2023-04-07T16:10:41.771Z,7.51
2023-04-07T16:13:11.175Z,7.44
2023-04-07T16:15:41.196Z,7.38
2023-04-07T16:18:11.510Z,7.35
2023-04-07T16:20:39.533Z,7.35
2023-04-07T16:23:07.448Z,7.41
2023-04-07T16:25:35.259Z,7.46
2023-04-07T16:28:03.379Z,7.48
2023-04-07T16:30:32.606Z,7.47
2023-04-07T16:33:01.573Z,7.41
2023-04-07T16:35:30.193Z,7.33
2023-04-07T16:38:01.592Z,7.34
2023-04-07T16:40:29.590Z,7.35
2023-04-07T16:42:57.495Z,7.33
2023-04-07T16:45:25.682Z,7.29
2023-04-07T16:47:55.057Z,7.29
2023-04-07T16:50:23.056Z,7.26
2023-04-07T16:52:50.916Z,7.13
2023-04-07T16:55:19.029Z,7.05
2023-04-07T16:57:46.983Z,7.05
2023-04-07T17:00:15.303Z,6.91
2023-04-07T17:02:43.350Z,6.75
2023-04-07T17:05:12.683Z,6.63
2023-04-07T17:07:40.507Z,6.62
2023-04-07T17:10:09.423Z,6.55
2023-04-07T17:12:37.242Z,6.58
2023-04-07T17:15:05.494Z,6.54
2023-04-07T17:17:33.494Z,6.54
2023-04-07T17:20:01.579Z,6.55
2023-04-07T17:22:30.977Z,6.54
2023-04-07T17:24:58.905Z,6.45
2023-04-07T17:27:26.742Z,6.38
2023-04-07T17:29:54.597Z,6.38
2023-04-07T17:32:23.454Z,6.43
2023-04-07T17:34:51.865Z,6.42
2023-04-07T17:37:19.822Z,6.37
2023-04-07T17:39:49.025Z,6.27
2023-04-07T17:42:16.949Z,6.22
2023-04-07T17:44:45.294Z,6.16
2023-04-07T17:47:13.396Z,6.14
2023-04-07T17:49:42.124Z,6.14
2023-04-07T17:52:10.032Z,6.10
2023-04-07T17:54:37.925Z,6.06
2023-04-07T17:57:08.321Z,6.10
2023-04-07T17:59:36.237Z,6.06
2023-04-07T18:02:08.944Z,6.08
2023-04-07T18:04:38.053Z,6.06
2023-04-07T18:07:05.999Z,6.09
2023-04-07T18:09:34.248Z,6.08
2023-04-07T18:12:02.775Z,6.09
2023-04-07T18:14:32.072Z,6.09
2023-04-07T18:16:59.892Z,6.17
2023-04-07T18:19:29.955Z,6.29
2023-04-07T18:21:57.967Z,6.33
2023-04-07T18:24:26.002Z,6.47
2023-04-07T18:26:53.995Z,6.51
2023-04-07T18:29:21.943Z,6.52
2023-04-07T18:31:51.326Z,6.54
2023-04-07T18:34:19.295Z,6.55
2023-04-07T18:36:47.491Z,6.56
2023-04-07T18:39:15.725Z,6.61
2023-04-07T18:41:45.336Z,6.51
2023-04-07T18:44:13.455Z,6.67
2023-04-07T18:46:41.622Z,6.69
2023-04-07T18:49:11.268Z,6.72
2023-04-07T18:51:39.531Z,6.71
2023-04-07T18:54:07.362Z,6.72
2023-04-07T18:56:35.358Z,6.74
2023-04-07T18:59:03.869Z,6.74
2023-04-07T19:01:32.274Z,6.74
2023-04-07T19:04:01.262Z,6.74
2023-04-07T19:06:32.038Z,6.76
2023-04-07T19:09:00.141Z,6.75
2023-04-07T19:11:28.042Z,6.73
2023-04-07T19:13:56.476Z,6.73
2023-04-07T19:16:24.817Z,6.71
2023-04-07T19:18:53.247Z,6.70
2023-04-07T19:21:21.349Z,6.70
2023-04-07T19:23:50.925Z,6.72
2023-04-07T19:26:18.969Z,6.74
2023-04-07T19:28:48.310Z,6.74
2023-04-07T19:31:16.300Z,6.73
2023-04-07T19:33:44.225Z,6.65
2023-04-07T19:36:12.230Z,6.72
2023-04-07T19:38:40.576Z,6.70
2023-04-07T19:41:09.955Z,6.70
2023-04-07T19:43:37.802Z,6.72
2023-04-07T19:46:06.349Z,6.71
2023-04-07T19:48:34.373Z,6.70
2023-04-07T19:51:02.278Z,6.65
2023-04-07T19:53:30.135Z,6.65
2023-04-07T19:55:58.018Z,6.67
2023-04-07T19:58:27.211Z,6.70
2023-04-07T20:00:55.254Z,6.70
2023-04-07T20:03:23.519Z,6.65
2023-04-07T20:05:52.763Z,6.63
2023-04-07T20:08:20.684Z,6.62
2023-04-07T20:10:50.961Z,6.58
2023-04-07T20:13:19.052Z,6.55
2023-04-07T20:15:49.129Z,6.59
2023-04-07T20:18:18.593Z,6.58
2023-04-07T20:20:46.901Z,6.55
2023-04-07T20:23:16.205Z,6.57
2023-04-07T20:25:44.145Z,6.52
2023-04-07T20:28:12.155Z,6.49
2023-04-07T20:30:40.000Z,6.46
2023-04-07T20:33:09.680Z,6.46
2023-04-07T20:35:37.684Z,6.42
2023-04-07T20:38:05.637Z,6.43
2023-04-07T20:40:35.578Z,6.45
2023-04-07T20:43:03.910Z,6.50
2023-04-07T20:45:31.767Z,6.50
2023-04-07T20:48:00.270Z,6.53
2023-04-07T20:50:29.824Z,6.55
2023-04-07T20:52:57.812Z,6.58
2023-04-07T20:55:25.951Z,6.61
2023-04-07T20:57:54.750Z,6.62
2023-04-07T21:00:22.947Z,6.54
2023-04-07T21:02:51.484Z,6.50
2023-04-07T21:05:20.530Z,6.48
2023-04-07T21:07:50.058Z,6.42
2023-04-07T21:10:18.101Z,6.39
2023-04-07T21:12:46.071Z,6.44
2023-04-07T21:15:14.718Z,6.47
2023-04-07T21:17:42.573Z,6.52
2023-04-07T21:20:12.236Z,6.55
2023-04-07T21:22:40.230Z,6.51
2023-04-07T21:25:10.625Z,6.56
2023-04-07T21:27:39.773Z,6.55
2023-04-07T21:30:09.305Z,6.51
2023-04-07T21:32:37.277Z,6.50
2023-04-07T21:35:06.015Z,6.49
2023-04-07T21:37:34.066Z,6.41
2023-04-07T21:40:02.187Z,6.40
2023-04-07T21:42:31.405Z,6.41
2023-04-07T21:44:59.352Z,6.36
2023-04-07T21:47:27.260Z,6.28
2023-04-07T21:49:55.242Z,6.25
2023-04-07T21:52:23.109Z,6.24
2023-04-07T21:54:51.078Z,6.24
2023-04-07T21:57:19.428Z,6.28
2023-04-07T21:59:48.703Z,6.33
2023-04-07T22:02:31.155Z,6.35
2023-04-07T22:04:59.484Z,6.35
2023-04-07T22:07:27.374Z,6.35
2023-04-07T22:09:55.794Z,6.31
2023-04-07T22:12:23.665Z,6.32
2023-04-07T22:14:51.518Z,6.33
2023-04-07T22:17:19.430Z,6.28
2023-04-07T22:19:48.705Z,6.28
2023-04-07T22:22:17.073Z,6.29
2023-04-07T22:24:44.983Z,6.31
2023-04-07T22:27:12.814Z,6.38
2023-04-07T22:29:40.765Z,6.37
2023-04-07T22:32:08.661Z,6.38
2023-04-07T22:34:36.501Z,6.37
2023-04-07T22:37:06.072Z,6.37
2023-04-07T22:39:34.021Z,6.33
2023-04-07T22:42:02.741Z,6.33
2023-04-07T22:44:30.764Z,6.36
2023-04-07T22:46:58.704Z,6.38
2023-04-07T22:49:26.692Z,6.42
2023-04-07T22:51:57.025Z,6.45
2023-04-07T22:54:26.356Z,6.47
2023-04-07T22:56:54.313Z,6.47
2023-04-07T22:59:22.157Z,6.50
2023-04-07T23:01:50.303Z,6.52
2023-04-07T23:04:18.711Z,6.50
2023-04-07T23:06:47.244Z,6.47
2023-04-07T23:09:15.579Z,6.40
2023-04-07T23:11:47.143Z,6.40
2023-04-07T23:14:15.377Z,6.41
2023-04-07T23:16:43.242Z,6.41
2023-04-07T23:19:15.321Z,6.38
2023-04-07T23:21:43.550Z,6.39
2023-04-07T23:24:11.551Z,6.37
2023-04-07T23:26:39.514Z,6.36
2023-04-07T23:29:08.707Z,6.33
2023-04-07T23:31:36.806Z,6.34
2023-04-07T23:34:05.752Z,6.34
2023-04-07T23:36:33.632Z,6.34
2023-04-07T23:39:02.296Z,6.38
2023-04-07T23:41:30.299Z,6.36
2023-04-07T23:43:58.154Z,6.39
2023-04-07T23:46:27.580Z,6.40
2023-04-07T23:48:55.588Z,6.41
2023-04-07T23:51:23.697Z,6.40
2023-04-07T23:53:51.633Z,6.43
2023-04-07T23:56:19.554Z,6.37
2023-04-07T23:58:47.672Z,6.39
